createdAt,value
2019-04-21T00:00:17.037Z,45.40
2019-04-21T00:02:47.718Z,43.07
2019-04-21T00:05:37.353Z,51.27
2019-04-21T00:08:10.766Z,50.00
2019-04-21T00:10:39.960Z,45.80
2019-04-21T00:13:05.282Z,44.03
2019-04-21T00:15:31.072Z,49.37
2019-04-21T00:17:57.493Z,54.23
2019-04-21T00:20:32.265Z,39.00
2019-04-21T00:23:13.129Z,49.23
2019-04-21T00:25:38.792Z,61.90
2019-04-21T00:28:20.137Z,43.20
2019-04-21T00:30:47.040Z,49.67
2019-04-21T00:33:06.802Z,39.80
2019-04-21T00:35:31.220Z,35.37
2019-04-21T00:38:17.033Z,44.13
2019-04-21T00:40:54.109Z,45.90
2019-04-21T00:43:22.316Z,55.87
2019-04-21T00:45:47.090Z,46.83
2019-04-21T00:48:23.644Z,59.80
2019-04-21T00:51:12.345Z,47.33
2019-04-21T00:53:38.441Z,48.83
2019-04-21T00:56:13.507Z,52.53
2019-04-21T00:58:39.622Z,57.30
2019-04-21T01:01:04.390Z,45.87
2019-04-21T01:03:41.732Z,55.93
2019-04-21T01:06:14.322Z,45.80
2019-04-21T01:08:35.660Z,57.77
2019-04-21T01:11:12.373Z,47.97
2019-04-21T01:13:46.828Z,55.73
2019-04-21T01:16:14.117Z,61.40
2019-04-21T01:18:48.355Z,45.73
2019-04-21T01:20:52.249Z,50.80
2019-04-21T01:23:23.409Z,58.53
2019-04-21T01:26:08.046Z,48.77
2019-04-21T01:28:40.073Z,52.47
2019-04-21T01:31:15.261Z,46.37
2019-04-21T01:33:45.054Z,47.63
2019-04-21T01:36:14.465Z,52.67
2019-04-21T01:38:48.660Z,65.93
2019-04-21T01:41:20.997Z,51.60
2019-04-21T01:43:45.991Z,60.00
2019-04-21T01:46:15.090Z,59.53
2019-04-21T01:48:42.785Z,51.47
2019-04-21T01:51:18.463Z,57.17
2019-04-21T01:54:03.913Z,54.67
2019-04-21T01:56:44.837Z,75.90
2019-04-21T01:59:04.924Z,65.60
2019-04-21T02:01:49.058Z,59.07
2019-04-21T02:04:26.961Z,48.03
2019-04-21T02:06:50.476Z,57.90
2019-04-21T02:09:15.401Z,55.70
2019-04-21T02:11:50.879Z,57.83
2019-04-21T02:14:22.983Z,69.17
2019-04-21T02:16:54.310Z,51.87
2019-04-21T02:19:18.252Z,61.33
2019-04-21T02:21:46.294Z,62.87
2019-04-21T02:24:30.108Z,57.37
2019-04-21T02:26:52.713Z,59.30
2019-04-21T02:29:29.030Z,52.50
2019-04-21T02:34:41.686Z,54.80
2019-04-21T02:37:29.989Z,52.27
2019-04-21T02:39:46.716Z,57.50
2019-04-21T02:44:49.643Z,43.43
2019-04-21T02:47:05.198Z,48.00
2019-04-21T02:54:54.042Z,46.67
2019-04-21T02:57:18.382Z,51.03
2019-04-21T02:59:52.240Z,60.27
2019-04-21T03:02:34.896Z,50.97
2019-04-21T03:05:21.293Z,47.97
2019-04-21T03:07:41.360Z,52.10
2019-04-21T03:12:42.191Z,47.47
2019-04-21T03:15:25.561Z,45.30
2019-04-21T03:17:54.968Z,48.47
2019-04-21T03:20:17.198Z,46.50
2019-04-21T03:25:36.871Z,53.33
2019-04-21T03:27:56.932Z,56.57
2019-04-21T03:30:29.856Z,58.03
2019-04-21T03:33:29.731Z,65.33
2019-04-21T03:37:52.908Z,52.37
2019-04-21T03:47:56.425Z,54.87
2019-04-21T03:50:27.411Z,47.70
2019-04-21T03:53:05.233Z,55.40
2019-04-21T03:58:14.826Z,44.07
2019-04-21T04:00:49.782Z,51.97
2019-04-21T04:11:25.117Z,125.17
2019-04-21T04:16:19.540Z,51.70
2019-04-21T04:18:53.753Z,48.90
2019-04-21T04:21:28.727Z,52.33
2019-04-21T04:26:26.258Z,53.07
2019-04-21T04:28:54.606Z,44.63
2019-04-21T04:31:35.348Z,46.13
2019-04-21T04:34:00.334Z,43.40
2019-04-21T04:36:36.006Z,43.80
2019-04-21T04:39:26.343Z,55.07
2019-04-21T04:49:48.038Z,56.77
2019-04-21T04:57:25.970Z,62.80
2019-04-21T04:59:55.444Z,58.70
2019-04-21T05:02:20.503Z,54.67
2019-04-21T05:05:09.060Z,57.37
2019-04-21T05:07:13.828Z,55.30
2019-04-21T05:09:50.091Z,58.93
2019-04-21T05:12:11.867Z,84.50
2019-04-21T05:14:48.383Z,102.30
2019-04-21T05:17:26.951Z,50.10
2019-04-21T05:20:03.652Z,58.90
2019-04-21T05:24:37.935Z,59.80
2019-04-21T05:27:08.577Z,56.00
2019-04-21T05:29:53.550Z,50.27
2019-04-21T05:32:43.239Z,56.10
2019-04-21T05:35:15.633Z,51.33
2019-04-21T05:38:02.046Z,67.60
2019-04-21T05:40:29.547Z,55.70
2019-04-21T05:43:03.282Z,51.37
2019-04-21T05:45:40.789Z,57.60
2019-04-21T05:48:39.708Z,45.10
2019-04-21T05:51:08.990Z,48.23
2019-04-21T05:53:42.256Z,43.50
2019-04-21T05:56:16.230Z,53.70
2019-04-21T05:58:46.561Z,51.77
2019-04-21T06:01:23.800Z,47.73
2019-04-21T06:03:52.702Z,45.83
2019-04-21T06:08:49.897Z,46.60
2019-04-21T06:11:25.567Z,41.67
2019-04-21T06:13:58.393Z,42.90
2019-04-21T06:16:28.640Z,44.77
2019-04-21T06:21:40.546Z,40.37
2019-04-21T06:24:13.424Z,44.77
2019-04-21T06:26:51.801Z,37.00
2019-04-21T06:28:56.615Z,37.37
2019-04-21T06:31:57.866Z,39.33
2019-04-21T06:33:57.424Z,30.73
2019-04-21T06:39:12.269Z,35.27
2019-04-21T06:41:35.352Z,34.80
2019-04-21T06:44:12.844Z,30.73
2019-04-21T06:49:08.107Z,28.87
2019-04-21T06:51:48.198Z,34.93
2019-04-21T06:54:14.363Z,33.60
2019-04-21T06:59:09.492Z,33.07
2019-04-21T07:01:55.246Z,28.93
2019-04-21T07:06:51.575Z,20.30
2019-04-21T07:09:20.227Z,17.50
2019-04-21T07:11:50.444Z,21.60
2019-04-21T07:17:01.609Z,21.57
2019-04-21T07:19:30.340Z,16.83
2019-04-21T07:21:51.066Z,18.23
2019-04-21T07:24:29.157Z,26.40
2019-04-21T07:26:55.387Z,16.50
2019-04-21T07:29:27.193Z,15.07
2019-04-21T07:31:58.948Z,21.97
2019-04-21T07:34:34.344Z,16.87
2019-04-21T07:39:29.251Z,14.70
2019-04-21T07:41:53.880Z,18.83
2019-04-21T07:44:24.356Z,14.23
2019-04-21T07:46:54.020Z,11.83
2019-04-21T07:49:53.534Z,11.73
2019-04-21T07:52:22.113Z,14.53
2019-04-21T07:55:07.706Z,77.23
2019-04-21T07:57:18.844Z,23.37
2019-04-21T08:00:11.942Z,13.23
2019-04-21T08:02:23.281Z,15.90
2019-04-21T08:05:00.718Z,19.83
2019-04-21T08:07:40.085Z,15.60
2019-04-21T08:09:57.125Z,19.30
2019-04-21T08:12:24.418Z,16.23
2019-04-21T08:15:03.172Z,13.30
2019-04-21T08:17:30.206Z,25.10
2019-04-21T08:19:59.157Z,18.80
2019-04-21T08:22:35.118Z,17.33
2019-04-21T08:25:03.353Z,14.80
2019-04-21T08:27:44.546Z,12.13
2019-04-21T08:30:05.107Z,15.53
2019-04-21T08:32:44.105Z,12.40
2019-04-21T08:35:33.602Z,13.33
2019-04-21T08:37:39.589Z,11.77
2019-04-21T08:40:09.695Z,11.90
2019-04-21T08:42:39.975Z,12.00
2019-04-21T08:45:10.772Z,10.50
2019-04-21T08:47:39.701Z,15.13
2019-04-21T08:50:08.012Z,12.60
2019-04-21T08:55:21.958Z,9.60
2019-04-21T08:58:10.977Z,8.63
2019-04-21T09:00:45.342Z,11.40
2019-04-21T09:03:17.761Z,10.90
2019-04-21T09:05:45.590Z,11.00
2019-04-21T09:08:20.110Z,12.40
2019-04-21T09:10:47.026Z,13.70
2019-04-21T09:13:17.553Z,9.70
2019-04-21T09:15:49.746Z,7.90
2019-04-21T09:18:13.391Z,7.53
2019-04-21T09:20:55.214Z,9.83
2019-04-21T09:23:19.864Z,10.57
2019-04-21T09:25:53.024Z,12.20
2019-04-21T09:28:19.840Z,11.37
2019-04-21T09:30:43.947Z,13.00
2019-04-21T09:33:05.662Z,10.77
2019-04-21T09:35:40.584Z,9.90
2019-04-21T09:38:18.422Z,8.60
2019-04-21T09:40:43.924Z,11.13
2019-04-21T09:43:11.946Z,11.43
2019-04-21T09:45:40.509Z,7.10
2019-04-21T09:48:14.062Z,8.10
2019-04-21T09:50:41.443Z,10.93
2019-04-21T09:53:20.987Z,12.07
2019-04-21T09:55:50.003Z,10.47
2019-04-21T09:58:21.520Z,10.57
2019-04-21T10:00:56.853Z,9.07
2019-04-21T10:03:16.267Z,13.00
2019-04-21T10:05:45.212Z,9.03
2019-04-21T10:08:14.620Z,8.13
2019-04-21T10:10:44.446Z,6.93
2019-04-21T10:13:14.969Z,8.03
2019-04-21T10:15:46.611Z,12.40
2019-04-21T10:18:19.499Z,11.63
2019-04-21T10:20:49.194Z,6.77
2019-04-21T10:23:18.365Z,6.77
2019-04-21T10:25:48.433Z,8.07
2019-04-21T10:28:17.591Z,7.80
2019-04-21T10:30:46.879Z,6.53
2019-04-21T10:33:16.670Z,8.20
2019-04-21T10:35:46.774Z,7.23
2019-04-21T10:38:26.121Z,8.67
2019-04-21T10:40:47.575Z,6.67
2019-04-21T10:43:21.676Z,5.53
2019-04-21T10:45:48.701Z,8.37
2019-04-21T10:48:18.920Z,6.77
2019-04-21T10:50:49.331Z,3.80
2019-04-21T10:53:23.039Z,4.20
2019-04-21T10:56:05.783Z,6.50
2019-04-21T10:58:28.733Z,8.27
2019-04-21T11:01:15.118Z,7.10
2019-04-21T11:03:51.059Z,4.50
2019-04-21T11:06:21.141Z,3.53
2019-04-21T11:08:55.143Z,4.27
2019-04-21T11:11:21.788Z,4.00
2019-04-21T11:13:51.019Z,3.47
2019-04-21T11:16:21.236Z,6.57
2019-04-21T11:18:51.504Z,5.10
2019-04-21T11:21:20.882Z,4.07
2019-04-21T11:23:50.154Z,5.13
2019-04-21T11:26:20.006Z,5.73
2019-04-21T11:28:50.515Z,8.40
2019-04-21T11:31:20.925Z,5.50
2019-04-21T11:33:51.194Z,6.73
2019-04-21T11:36:21.484Z,4.57
2019-04-21T11:39:16.831Z,6.73
2019-04-21T11:41:29.855Z,4.10
2019-04-21T11:43:59.229Z,6.60
2019-04-21T11:46:28.635Z,5.13
2019-04-21T11:48:58.131Z,4.57
2019-04-21T11:51:27.283Z,4.03
2019-04-21T11:53:56.910Z,3.47
2019-04-21T11:56:27.214Z,4.87
2019-04-21T11:58:57.781Z,5.73
2019-04-21T12:01:27.667Z,4.03
2019-04-21T12:03:57.965Z,4.33
2019-04-21T12:06:32.167Z,6.67
2019-04-21T12:09:01.070Z,2.40
2019-04-21T12:11:29.412Z,3.33
2019-04-21T12:13:58.713Z,3.23
2019-04-21T12:16:28.792Z,3.53
2019-04-21T12:18:58.795Z,3.80
2019-04-21T12:21:31.143Z,3.20
2019-04-21T12:23:58.823Z,3.07
2019-04-21T12:26:28.298Z,3.13
2019-04-21T12:28:57.692Z,4.83
2019-04-21T12:31:53.880Z,3.20
2019-04-21T12:34:23.794Z,3.03
2019-04-21T12:36:52.909Z,4.90
2019-04-21T12:39:23.008Z,2.90
2019-04-21T12:41:52.073Z,2.33
2019-04-21T12:44:24.591Z,2.00
2019-04-21T12:46:54.062Z,4.83
2019-04-21T12:49:23.102Z,3.00
2019-04-21T12:51:53.446Z,4.40
2019-04-21T12:54:23.788Z,3.97
2019-04-21T12:56:53.782Z,2.83
2019-04-21T12:59:22.948Z,5.77
2019-04-21T13:01:52.827Z,3.33
2019-04-21T13:04:22.086Z,2.40
2019-04-21T13:06:51.781Z,2.43
2019-04-21T13:09:22.227Z,5.80
2019-04-21T13:11:55.138Z,6.93
2019-04-21T13:14:24.390Z,5.90
2019-04-21T13:16:53.271Z,2.30
2019-04-21T13:19:23.175Z,3.03
2019-04-21T13:21:52.483Z,3.13
2019-04-21T13:24:22.034Z,2.30
2019-04-21T13:26:57.766Z,4.33
2019-04-21T13:29:23.938Z,2.67
2019-04-21T13:31:54.183Z,2.60
2019-04-21T13:34:24.122Z,3.07
2019-04-21T13:36:53.940Z,1.97
2019-04-21T13:40:01.792Z,3.07
2019-04-21T13:42:17.426Z,3.27
2019-04-21T13:44:41.200Z,3.43
2019-04-21T13:47:10.561Z,3.50
2019-04-21T13:49:39.549Z,3.13
2019-04-21T13:52:08.950Z,2.10
2019-04-21T13:54:38.078Z,5.13
2019-04-21T13:57:08.332Z,6.60
2019-04-21T13:59:38.425Z,2.77
2019-04-21T14:02:08.947Z,6.30
2019-04-21T14:04:38.154Z,2.37
2019-04-21T14:07:08.191Z,3.40
2019-04-21T14:09:45.809Z,3.03
2019-04-21T14:12:08.005Z,3.00
2019-04-21T14:14:38.499Z,4.00
2019-04-21T14:17:08.807Z,2.73
2019-04-21T14:19:39.329Z,7.20
2019-04-21T14:22:11.343Z,4.27
2019-04-21T14:24:39.347Z,3.40
2019-04-21T14:27:08.374Z,3.43
2019-04-21T14:29:39.503Z,3.80
2019-04-21T14:32:10.665Z,2.77
2019-04-21T14:34:50.701Z,3.17
2019-04-21T14:37:22.485Z,2.37
2019-04-21T14:39:59.698Z,2.47
2019-04-21T14:42:22.708Z,3.40
2019-04-21T14:45:00.755Z,8.77
2019-04-21T14:47:54.310Z,2.50
2019-04-21T14:50:42.162Z,3.00
2019-04-21T14:53:36.405Z,7.20
2019-04-21T14:56:07.071Z,8.57
2019-04-21T14:58:41.269Z,5.73
2019-04-21T15:01:11.598Z,2.70
2019-04-21T15:03:41.720Z,11.73
2019-04-21T15:06:11.620Z,5.10
2019-04-21T15:08:40.956Z,7.00
2019-04-21T15:11:10.115Z,2.93
2019-04-21T15:13:39.727Z,2.47
2019-04-21T15:16:08.978Z,3.20
2019-04-21T15:18:38.988Z,4.27
2019-04-21T15:21:08.061Z,5.23
2019-04-21T15:23:38.212Z,6.43
2019-04-21T15:26:08.292Z,3.17
2019-04-21T15:28:39.098Z,3.87
2019-04-21T15:31:08.354Z,2.97
2019-04-21T15:33:37.425Z,3.17
2019-04-21T15:36:07.085Z,4.70
2019-04-21T15:38:36.299Z,3.87
2019-04-21T15:41:08.924Z,6.13
2019-04-21T15:43:36.415Z,5.30
2019-04-21T15:46:06.741Z,4.50
2019-04-21T15:48:37.046Z,5.23
2019-04-21T15:51:08.601Z,2.87
2019-04-21T15:53:37.537Z,4.60
2019-04-21T15:56:29.038Z,5.30
2019-04-21T15:59:14.587Z,2.93
2019-04-21T16:01:50.769Z,4.67
2019-04-21T16:04:20.880Z,2.60
2019-04-21T16:06:50.044Z,2.20
2019-04-21T16:09:21.758Z,6.13
2019-04-21T16:11:49.865Z,3.33
2019-04-21T16:14:18.826Z,2.90
2019-04-21T16:16:47.830Z,10.23
2019-04-21T16:19:18.468Z,4.47
2019-04-21T16:21:48.688Z,3.63
2019-04-21T16:24:18.399Z,10.83
2019-04-21T16:26:48.773Z,3.30
2019-04-21T16:29:17.959Z,3.17
2019-04-21T16:31:47.106Z,3.13
2019-04-21T16:34:16.166Z,2.80
2019-04-21T16:36:45.682Z,3.77
2019-04-21T16:39:15.581Z,4.23
2019-04-21T16:41:44.658Z,2.83
2019-04-21T16:44:13.666Z,3.23
2019-04-21T16:46:43.387Z,3.57
2019-04-21T16:49:13.647Z,3.13
2019-04-21T16:51:44.184Z,10.20
2019-04-21T16:54:23.993Z,5.83
2019-04-21T16:57:12.258Z,3.23
2019-04-21T16:59:48.678Z,2.63
2019-04-21T17:02:18.669Z,3.43
2019-04-21T17:04:48.579Z,3.60
2019-04-21T17:07:18.028Z,2.37
2019-04-21T17:09:48.517Z,6.63
2019-04-21T17:12:18.780Z,2.53
2019-04-21T17:15:01.144Z,3.37
2019-04-21T17:17:47.909Z,3.77
2019-04-21T17:19:53.805Z,4.93
2019-04-21T17:22:21.775Z,2.90
2019-04-21T17:24:50.850Z,2.87
2019-04-21T17:27:20.786Z,2.03
2019-04-21T17:29:50.609Z,3.60
2019-04-21T17:32:20.449Z,2.43
2019-04-21T17:34:50.125Z,3.07
2019-04-21T17:37:22.216Z,3.23
2019-04-21T17:39:50.014Z,2.60
2019-04-21T17:42:33.035Z,3.30
2019-04-21T17:44:51.090Z,5.83
2019-04-21T17:47:32.108Z,8.90
2019-04-21T17:50:13.683Z,2.47
2019-04-21T17:52:56.311Z,3.53
2019-04-21T17:55:29.382Z,3.13
2019-04-21T17:58:09.748Z,5.87
2019-04-21T18:01:06.533Z,3.63
2019-04-21T18:03:25.223Z,3.23
2019-04-21T18:05:45.968Z,2.57
2019-04-21T18:08:27.790Z,2.80
2019-04-21T18:10:47.995Z,5.00
2019-04-21T18:13:10.004Z,3.63
2019-04-21T18:15:50.613Z,2.73
2019-04-21T18:18:06.066Z,6.87
2019-04-21T18:20:41.545Z,3.03
2019-04-21T18:23:46.990Z,15.07
2019-04-21T18:26:15.689Z,17.27
2019-04-21T18:28:38.771Z,9.23
2019-04-21T18:31:14.413Z,6.43
2019-04-21T18:33:59.914Z,19.33
2019-04-21T18:36:37.688Z,8.77
2019-04-21T18:39:46.471Z,10.73
2019-04-21T18:42:31.137Z,12.03
2019-04-21T18:48:11.094Z,11.23
2019-04-21T18:50:52.682Z,12.30
2019-04-21T18:53:36.531Z,10.90
2019-04-21T18:55:58.159Z,9.33
2019-04-21T18:58:22.285Z,8.90
2019-04-21T19:00:53.117Z,6.63
2019-04-21T19:03:29.990Z,4.93
2019-04-21T19:06:02.803Z,9.00
2019-04-21T19:08:46.891Z,8.13
2019-04-21T19:11:13.683Z,4.77
2019-04-21T19:14:39.808Z,5.70
2019-04-21T19:17:04.507Z,6.43
2019-04-21T19:22:00.598Z,7.40
2019-04-21T19:24:29.143Z,9.10
2019-04-21T19:29:29.784Z,7.03
2019-04-21T19:32:05.711Z,7.53
2019-04-21T19:34:21.365Z,8.33
2019-04-21T19:36:51.274Z,8.73
2019-04-21T19:39:26.741Z,7.97
2019-04-21T19:41:58.362Z,5.17
2019-04-21T19:44:35.192Z,5.13
2019-04-21T19:47:03.936Z,10.33
2019-04-21T19:49:40.059Z,6.20
2019-04-21T19:51:56.210Z,4.90
2019-04-21T19:54:25.155Z,4.90
2019-04-21T19:56:49.082Z,4.57
2019-04-21T19:59:27.509Z,7.33
2019-04-21T20:01:51.285Z,4.10
2019-04-21T20:04:20.079Z,10.53
2019-04-21T20:07:01.166Z,9.10
2019-04-21T20:09:36.728Z,5.13
2019-04-21T20:12:06.404Z,4.97
2019-04-21T20:17:04.583Z,8.03
2019-04-21T20:19:22.924Z,4.13
2019-04-21T20:21:53.546Z,3.80
2019-04-21T20:24:27.999Z,55.13
2019-04-21T20:27:02.255Z,112.17
2019-04-21T20:29:44.558Z,22.37
2019-04-21T20:32:20.711Z,4.90
2019-04-21T20:34:46.097Z,6.23
2019-04-21T20:37:19.021Z,7.30
2019-04-21T20:39:35.044Z,5.67
2019-04-21T20:42:16.626Z,4.83
2019-04-21T20:44:54.590Z,6.40
2019-04-21T20:47:13.380Z,4.87
2019-04-21T20:49:40.870Z,4.63
2019-04-21T20:52:24.539Z,4.73
2019-04-21T20:54:52.152Z,6.13
2019-04-21T20:57:18.414Z,7.97
2019-04-21T20:59:43.823Z,5.50
2019-04-21T21:02:21.950Z,6.67
2019-04-21T21:04:45.040Z,6.87
2019-04-21T21:07:36.690Z,7.87
2019-04-21T21:10:00.087Z,5.73
2019-04-21T21:12:37.297Z,6.43
2019-04-21T21:14:51.509Z,6.63
2019-04-21T21:17:39.166Z,10.17
2019-04-21T21:19:59.622Z,10.20
2019-04-21T21:22:24.899Z,7.07
2019-04-21T21:24:55.846Z,7.43
2019-04-21T21:27:27.955Z,14.60
2019-04-21T21:29:58.357Z,8.03
2019-04-21T21:32:35.522Z,12.67
2019-04-21T21:35:06.143Z,14.70
2019-04-21T21:37:36.881Z,12.57
2019-04-21T21:40:02.853Z,8.50
2019-04-21T21:42:24.126Z,9.57
2019-04-21T21:44:55.947Z,6.87
2019-04-21T21:47:28.192Z,8.37
2019-04-21T21:50:00.788Z,6.63
2019-04-21T21:52:35.386Z,10.10
2019-04-21T21:54:51.862Z,8.00
2019-04-21T21:57:20.855Z,7.37
2019-04-21T21:59:51.718Z,7.47
2019-04-21T22:02:32.867Z,7.20
2019-04-21T22:05:01.123Z,6.30
2019-04-21T22:07:27.955Z,10.47
2019-04-21T22:09:54.580Z,7.23
2019-04-21T22:12:23.742Z,9.43
2019-04-21T22:14:55.446Z,5.00
2019-04-21T22:17:41.951Z,9.03
2019-04-21T22:20:17.052Z,5.27
2019-04-21T22:22:39.027Z,16.27
2019-04-21T22:25:06.960Z,5.57
2019-04-21T22:27:27.368Z,7.37
2019-04-21T22:29:59.932Z,9.03
2019-04-21T22:32:29.477Z,4.37
2019-04-21T22:35:02.081Z,7.17
2019-04-21T22:37:41.581Z,4.97
2019-04-21T22:40:13.684Z,7.77
2019-04-21T22:42:34.910Z,9.80
2019-04-21T22:45:01.498Z,10.37
2019-04-21T22:47:34.583Z,7.53
2019-04-21T22:50:02.657Z,7.33
2019-04-21T22:52:32.390Z,9.60
2019-04-21T22:55:08.380Z,7.17
2019-04-21T22:57:41.678Z,8.80
2019-04-21T23:00:10.741Z,9.73
2019-04-21T23:02:38.624Z,16.67
2019-04-21T23:05:08.398Z,6.30
2019-04-21T23:07:44.131Z,9.40
2019-04-21T23:10:09.488Z,9.13
2019-04-21T23:12:40.826Z,8.83
2019-04-21T23:15:16.546Z,7.40
2019-04-21T23:18:04.040Z,7.17
2019-04-21T23:20:37.309Z,10.07
2019-04-21T23:23:09.909Z,6.13
2019-04-21T23:25:31.541Z,7.33
2019-04-21T23:28:00.019Z,8.00
2019-04-21T23:30:39.197Z,9.00
2019-04-21T23:32:53.622Z,8.10
2019-04-21T23:35:26.480Z,8.27
2019-04-21T23:37:54.312Z,9.27
2019-04-21T23:40:23.303Z,8.17
2019-04-21T23:42:51.264Z,9.77
2019-04-21T23:45:27.469Z,8.43
2019-04-21T23:48:08.131Z,8.07
2019-04-21T23:50:34.271Z,9.33
2019-04-21T23:52:53.665Z,8.70
2019-04-21T23:55:23.251Z,8.10
2019-04-21T23:58:05.210Z,11.53
